Time;durP1;ratioP1;P1;durP2;ratioP2;P2;SDS_P1;SDS_P2;PMS_P1;PMS_P2;Temp;Humidity;BMP_temperature;BMP_pressure;BME280_temperature;BME280_humidity;BME280_pressure;Samples;Min_cycle;Max_cycle;Signal;HPM_P1;HPM_P2
2023/11/13 00:03:04;;;;;;;67.28;8.07;;;14.70;99.90;;;;;;7374170;19;20082;-73
2023/11/13 00:05:33;;;;;;;66.03;10.55;;;14.80;99.90;;;;;;7400514;19;20007;-74
2023/11/13 00:08:02;;;;;;;57.72;7.45;;;14.80;99.90;;;;;;7312073;19;20043;-72
2023/11/13 00:10:32;;;;;;;46.58;6.00;;;14.80;99.90;;;;;;7376266;19;20016;-72
2023/11/13 00:13:04;;;;;;;52.58;6.72;;;14.80;99.90;;;;;;7378173;19;20071;-72
2023/11/13 00:15:32;;;;;;;56.22;7.57;;;14.80;99.90;;;;;;7399324;19;20003;-73
2023/11/13 00:18:02;;;;;;;55.33;6.85;;;14.70;99.90;;;;;;7379642;19;20382;-73
2023/11/13 00:20:31;;;;;;;39.55;6.35;;;14.70;99.90;;;;;;7377120;19;20370;-72
2023/11/13 00:22:59;;;;;;;41.08;6.45;;;14.70;99.90;;;;;;7377567;19;20003;-73
2023/11/13 00:25:28;;;;;;;50.47;7.53;;;14.80;99.90;;;;;;7377252;19;20020;-72
2023/11/13 00:27:57;;;;;;;42.55;5.97;;;14.70;99.90;;;;;;7377732;19;20020;-73
2023/11/13 00:30:28;;;;;;;43.47;6.68;;;14.70;99.90;;;;;;7398747;19;20071;-73
2023/11/13 00:32:57;;;;;;;51.00;6.30;;;14.70;99.90;;;;;;7376909;19;20070;-73
2023/11/13 00:35:25;;;;;;;62.10;8.50;;;14.70;99.90;;;;;;7376698;19;20031;-73
2023/11/13 00:37:57;;;;;;;58.65;8.55;;;14.60;99.90;;;;;;7375724;19;20078;-72
2023/11/13 00:40:27;;;;;;;51.97;7.43;;;14.70;99.90;;;;;;7374518;19;20007;-73
2023/11/13 00:42:56;;;;;;;76.75;8.77;;;14.60;99.90;;;;;;7374533;19;20007;-73
2023/11/13 00:45:24;;;;;;;66.70;8.07;;;14.60;99.90;;;;;;7395287;19;20007;-73
2023/11/13 00:47:56;;;;;;;72.07;8.23;;;14.50;99.90;;;;;;7373181;19;20080;-73
2023/11/13 00:50:24;;;;;;;64.18;9.57;;;14.60;99.90;;;;;;7373975;19;20023;-73
2023/11/13 00:52:53;;;;;;;51.78;8.02;;;14.60;99.90;;;;;;7374076;19;20018;-73
2023/11/13 00:55:22;;;;;;;82.80;8.55;;;14.70;99.90;;;;;;7373886;19;20385;-74
2023/11/13 00:57:51;;;;;;;70.15;8.68;;;14.70;99.90;;;;;;7373990;19;20011;-73
2023/11/13 01:00:21;;;;;;;73.22;9.70;;;14.70;99.90;;;;;;7395827;19;20022;-73
2023/11/13 01:02:51;;;;;;;73.38;8.85;;;14.70;99.90;;;;;;7372362;19;20002;-74
2023/11/13 01:05:22;;;;;;;70.43;8.13;;;14.70;99.90;;;;;;7374179;19;20023;-73
2023/11/13 01:07:51;;;;;;;53.05;8.10;;;14.60;99.90;;;;;;7373426;19;20013;-73
2023/11/13 01:10:21;;;;;;;47.53;6.35;;;14.70;99.90;;;;;;7372975;19;20312;-73
2023/11/13 01:12:49;;;;;;;52.33;6.05;;;14.60;99.90;;;;;;7375890;19;19998;-73
2023/11/13 01:15:18;;;;;;;65.03;7.95;;;14.60;99.90;;;;;;7399942;19;20011;-73
2023/11/13 01:21:00;;;;;;;74.30;8.93;;;14.60;99.90;;;;;;7384113;19;19998;-73
2023/11/13 01:23:29;;;;;;;77.78;8.70;;;14.70;99.90;;;;;;7387960;19;19998;-73
2023/11/13 01:25:58;;;;;;;55.10;7.88;;;14.70;99.90;;;;;;7382814;19;20287;-73
2023/11/13 01:28:27;;;;;;;73.85;7.90;;;14.70;99.90;;;;;;7381083;19;20024;-73
2023/11/13 01:30:55;;;;;;;71.15;10.48;;;14.70;99.90;;;;;;7380745;19;20243;-73
2023/11/13 01:33:24;;;;;;;93.18;12.20;;;14.70;99.90;;;;;;7401577;19;20010;-73
2023/11/13 01:35:53;;;;;;;54.45;7.03;;;14.80;99.90;;;;;;7379687;19;20085;-73
2023/11/13 01:38:26;;;;;;;56.03;7.03;;;14.80;99.90;;;;;;7378444;19;20729;-73
2023/11/13 01:40:55;;;;;;;54.08;7.38;;;14.70;99.90;;;;;;7380641;19;19998;-73
2023/11/13 01:43:24;;;;;;;60.42;7.10;;;14.80;99.90;;;;;;7379693;19;20019;-73
2023/11/13 01:45:56;;;;;;;59.88;7.88;;;14.80;99.90;;;;;;7379883;19;20258;-73
2023/11/13 01:48:26;;;;;;;61.67;6.43;;;14.80;99.90;;;;;;7401951;19;20002;-74
2023/11/13 01:50:54;;;;;;;67.32;9.05;;;14.80;99.90;;;;;;7379534;19;20003;-73
2023/11/13 01:53:28;;;;;;;80.05;10.10;;;14.80;99.90;;;;;;7379149;19;19998;-73
2023/11/13 01:56:00;;;;;;;66.45;9.25;;;14.90;99.90;;;;;;7379918;19;20082;-74
2023/11/13 01:58:29;;;;;;;83.50;11.10;;;14.80;99.90;;;;;;7378973;19;20010;-73
2023/11/13 02:00:58;;;;;;;68.95;10.20;;;14.80;99.90;;;;;;7380102;19;20003;-73
2023/11/13 02:03:28;;;;;;;72.65;10.38;;;14.90;99.90;;;;;;7400843;19;20082;-73
2023/11/13 02:05:58;;;;;;;40.40;6.90;;;14.90;99.90;;;;;;7379245;19;20007;-73
2023/11/13 02:08:29;;;;;;;38.05;5.18;;;14.80;99.90;;;;;;7377556;19;20007;-73
2023/11/13 02:10:58;;;;;;;48.78;5.65;;;14.80;99.90;;;;;;7378796;19;20011;-72
2023/11/13 02:13:27;;;;;;;34.60;5.80;;;14.80;99.90;;;;;;7379435;19;20023;-73
2023/11/13 02:15:56;;;;;;;39.85;6.25;;;14.80;99.90;;;;;;7378791;19;20385;-73
2023/11/13 02:18:24;;;;;;;57.50;6.43;;;14.80;99.90;;;;;;7399768;19;20027;-74
2023/11/13 02:20:56;;;;;;;88.03;23.08;;;14.80;99.90;;;;;;7377731;19;20018;-74
2023/11/13 02:23:28;;;;;;;43.03;8.82;;;14.80;99.90;;;;;;7378750;19;20112;-74
2023/11/13 02:25:58;;;;;;;44.20;7.30;;;14.80;99.90;;;;;;7378615;19;20013;-73
2023/11/13 02:28:27;;;;;;;35.28;5.78;;;14.80;99.90;;;;;;7379179;19;20024;-74
2023/11/13 02:30:56;;;;;;;125.88;9.50;;;14.80;99.90;;;;;;7378376;19;20356;-73
2023/11/13 02:33:24;;;;;;;36.53;6.95;;;14.80;99.90;;;;;;7399549;19;20007;-73
2023/11/13 02:35:53;;;;;;;40.72;5.60;;;14.80;99.90;;;;;;7377217;19;20006;-73
2023/11/13 02:38:22;;;;;;;41.97;6.00;;;14.80;99.90;;;;;;7377670;19;20010;-73
2023/11/13 02:40:53;;;;;;;36.55;6.22;;;14.80;99.90;;;;;;7377502;19;20542;-72
2023/11/13 02:43:22;;;;;;;;;;;14.80;99.90;;;;;;7379190;19;20002;-73
2023/11/13 02:45:52;;;;;;;67.13;6.72;;;14.80;99.90;;;;;;7376624;19;20096;-73
2023/11/13 02:48:20;;;;;;;78.43;8.25;;;14.90;99.90;;;;;;7398739;19;20291;-73
2023/11/13 02:50:52;;;;;;;48.67;7.97;;;14.80;99.90;;;;;;7376705;19;20031;-73
2023/11/13 02:53:21;;;;;;;60.10;8.50;;;14.90;99.90;;;;;;7377323;19;20003;-73
2023/11/13 02:55:51;;;;;;;60.65;7.32;;;14.90;99.90;;;;;;7377388;19;20390;-72
2023/11/13 02:58:22;;;;;;;238.32;16.08;;;14.80;99.90;;;;;;7377207;19;20031;-72
2023/11/13 03:00:51;;;;;;;56.85;7.72;;;14.90;99.90;;;;;;7379661;19;20007;-72
2023/11/13 03:03:20;;;;;;;93.45;9.40;;;14.90;99.90;;;;;;7398705;19;20074;-72
2023/11/13 03:05:48;;;;;;;92.75;10.02;;;14.90;99.90;;;;;;7376218;19;20003;-72
2023/11/13 03:08:17;;;;;;;66.30;8.52;;;14.90;99.90;;;;;;7376338;19;20226;-72
2023/11/13 03:10:46;;;;;;;87.13;9.25;;;14.90;99.90;;;;;;7378805;19;20010;-72
2023/11/13 03:13:15;;;;;;;59.67;8.98;;;15.00;99.90;;;;;;7376552;19;20086;-73
2023/11/13 03:15:47;;;;;;;46.80;8.85;;;15.00;99.90;;;;;;7376556;19;20102;-73
2023/11/13 03:18:16;;;;;;;68.03;8.93;;;15.00;99.90;;;;;;7397975;19;20053;-73
2023/11/13 03:20:46;;;;;;;54.20;8.48;;;15.10;99.90;;;;;;7376114;19;20005;-73
2023/11/13 03:23:14;;;;;;;78.13;9.10;;;14.80;99.90;;;;;;7376775;19;20007;-72
2023/11/13 03:25:43;;;;;;;72.13;8.48;;;14.90;99.90;;;;;;7376330;19;20484;-73
2023/11/13 03:28:12;;;;;;;74.55;10.48;;;14.90;99.90;;;;;;7379735;19;20010;-74
2023/11/13 03:30:41;;;;;;;65.55;9.32;;;14.80;99.90;;;;;;7385696;19;20063;-73
2023/11/13 03:33:12;;;;;;;63.28;8.90;;;15.00;99.90;;;;;;7401311;19;20066;-74
2023/11/13 03:35:41;;;;;;;65.80;8.02;;;15.00;99.90;;;;;;7379370;19;19999;-73
2023/11/13 03:38:10;;;;;;;60.08;8.75;;;15.10;99.90;;;;;;7384972;19;20010;-73
2023/11/13 03:40:39;;;;;;;64.85;8.88;;;15.20;99.90;;;;;;7378199;19;20023;-73
2023/11/13 03:43:09;;;;;;;66.40;9.65;;;15.10;99.90;;;;;;7376339;19;20429;-74
2023/11/13 03:45:37;;;;;;;100.80;11.45;;;15.10;99.90;;;;;;7395740;19;20018;-73
2023/11/13 03:48:06;;;;;;;91.20;13.93;;;15.20;99.90;;;;;;7375981;19;20019;-73
2023/11/13 03:50:38;;;;;;;62.65;8.85;;;15.30;99.90;;;;;;7374719;19;20007;-73
2023/11/13 03:53:07;;;;;;;68.32;9.75;;;15.20;99.90;;;;;;7375823;19;20058;-73
2023/11/13 03:55:35;;;;;;;70.93;9.00;;;15.20;99.90;;;;;;7376255;19;20015;-73
2023/11/13 03:58:04;;;;;;;86.90;10.23;;;15.20;99.90;;;;;;7376480;19;20014;-73
2023/11/13 04:00:34;;;;;;;61.38;9.25;;;15.20;99.90;;;;;;7396327;19;20015;-73
2023/11/13 04:03:03;;;;;;;52.83;8.88;;;15.30;99.90;;;;;;7374430;19;20003;-73
2023/11/13 04:05:32;;;;;;;70.47;9.68;;;15.10;99.90;;;;;;7374465;19;20003;-73
2023/11/13 04:08:04;;;;;;;94.00;10.60;;;15.20;99.90;;;;;;7374751;19;20023;-73
2023/11/13 04:10:34;;;;;;;84.78;11.93;;;15.30;99.90;;;;;;7376970;19;20007;-74
2023/11/13 04:13:03;;;;;;;68.65;9.60;;;15.40;99.90;;;;;;7374906;19;20011;-73
2023/11/13 04:15:31;;;;;;;42.70;8.27;;;15.40;99.90;;;;;;7396607;19;20015;-72
2023/11/13 04:18:00;;;;;;;66.05;8.95;;;15.40;99.90;;;;;;7374108;19;20231;-72
2023/11/13 04:20:29;;;;;;;53.80;7.95;;;15.40;99.90;;;;;;7374303;19;20399;-72
2023/11/13 04:22:57;;;;;;;61.92;8.10;;;15.40;99.90;;;;;;7375139;19;20009;-73
2023/11/13 04:25:29;;;;;;;46.05;8.52;;;15.40;99.90;;;;;;7374637;19;20067;-72
2023/11/13 04:27:58;;;;;;;53.53;7.75;;;15.50;99.90;;;;;;7375202;19;20024;-72
2023/11/13 04:30:27;;;;;;;41.58;7.50;;;15.50;99.90;;;;;;7396852;19;20063;-72
2023/11/13 04:32:55;;;;;;;56.00;9.40;;;15.50;99.90;;;;;;7373995;19;20062;-72
2023/11/13 04:35:24;;;;;;;127.95;14.18;;;15.40;99.90;;;;;;7374187;19;19999;-72
2023/11/13 04:37:54;;;;;;;35.15;6.72;;;15.50;99.90;;;;;;7374814;19;20003;-72
2023/11/13 04:40:23;;;;;;;44.40;7.47;;;15.50;99.90;;;;;;7374236;19;20096;-73
2023/11/13 04:42:54;;;;;;;42.45;6.80;;;15.40;99.90;;;;;;7374147;19;20011;-72
2023/11/13 04:45:23;;;;;;;42.05;6.97;;;15.50;99.90;;;;;;7393779;19;20058;-72
2023/11/13 04:47:52;;;;;;;47.13;7.68;;;15.40;99.90;;;;;;7372925;19;20074;-72
2023/11/13 04:50:22;;;;;;;49.13;7.30;;;15.20;99.90;;;;;;7373974;19;20032;-72
2023/11/13 04:52:51;;;;;;;54.10;7.90;;;15.40;99.90;;;;;;7373644;19;20020;-72
2023/11/13 04:55:20;;;;;;;51.78;8.05;;;15.50;99.90;;;;;;7374222;19;20106;-72
2023/11/13 04:57:48;;;;;;;45.20;7.25;;;15.50;99.90;;;;;;7378198;19;20021;-73
2023/11/13 05:00:22;;;;;;;61.13;9.02;;;15.30;99.90;;;;;;7400320;19;20480;-73
2023/11/13 05:02:51;;;;;;;66.15;7.97;;;15.40;99.90;;;;;;7380456;19;20011;-73
2023/11/13 05:05:20;;;;;;;38.03;7.05;;;15.40;99.90;;;;;;7381278;19;20002;-73
2023/11/13 05:07:48;;;;;;;44.88;6.93;;;15.50;99.90;;;;;;7380971;19;20058;-72
2023/11/13 05:10:17;;;;;;;48.67;6.75;;;15.60;99.90;;;;;;7380719;19;20292;-74
2023/11/13 05:12:46;;;;;;;36.70;7.05;;;15.50;99.90;;;;;;7380948;19;20010;-73
2023/11/13 05:15:16;;;;;;;35.75;6.80;;;15.60;99.90;;;;;;7402145;19;20010;-73
2023/11/13 05:17:47;;;;;;;45.05;6.70;;;15.60;99.90;;;;;;7380146;19;20023;-73
2023/11/13 05:20:17;;;;;;;46.75;7.38;;;15.50;99.90;;;;;;7378256;19;20011;-73
2023/11/13 05:22:48;;;;;;;34.15;7.45;;;15.40;99.90;;;;;;7380065;19;20443;-73
2023/11/13 05:25:17;;;;;;;44.95;7.57;;;15.50;99.90;;;;;;7381044;19;20042;-73
2023/11/13 05:27:45;;;;;;;51.53;7.50;;;15.30;99.90;;;;;;7380189;19;20014;-73
2023/11/13 05:30:15;;;;;;;49.47;6.90;;;15.40;99.90;;;;;;7401109;19;20007;-73
2023/11/13 05:32:46;;;;;;;42.80;7.57;;;15.50;99.90;;;;;;7378768;19;20743;-73
2023/11/13 05:35:15;;;;;;;42.85;7.03;;;15.30;99.90;;;;;;7379962;19;20074;-73
2023/11/13 05:37:43;;;;;;;57.78;7.65;;;15.50;99.90;;;;;;7379815;19;20062;-73
2023/11/13 05:40:16;;;;;;;47.67;7.13;;;15.60;99.90;;;;;;7379522;19;20024;-73
2023/11/13 05:42:44;;;;;;;36.50;6.57;;;15.40;99.90;;;;;;7379808;19;20011;-73
2023/11/13 05:45:16;;;;;;;37.85;6.38;;;15.60;99.90;;;;;;7406723;19;19999;-73
2023/11/13 05:47:47;;;;;;;;;;;15.70;99.90;;;;;;7390004;19;20066;-73
2023/11/13 05:50:15;;;;;;;39.42;6.53;;;15.60;99.90;;;;;;7389601;19;19911;-73
2023/11/13 05:52:44;;;;;;;37.15;6.80;;;15.60;99.90;;;;;;7387754;19;20006;-73
2023/11/13 05:55:13;;;;;;;36.97;6.03;;;15.70;99.90;;;;;;7384528;19;20017;-73
2023/11/13 05:57:45;;;;;;;31.17;6.53;;;15.70;99.90;;;;;;7380059;19;20018;-73
2023/11/13 06:00:16;;;;;;;50.20;6.65;;;15.70;99.90;;;;;;7399508;19;20082;-73
2023/11/13 06:02:47;;;;;;;41.78;6.20;;;15.70;99.90;;;;;;7382310;19;20006;-73
2023/11/13 06:05:17;;;;;;;39.88;7.47;;;15.90;99.90;;;;;;7379059;19;20014;-72
2023/11/13 06:07:46;;;;;;;41.63;6.35;;;15.80;99.90;;;;;;7377962;19;20010;-73
2023/11/13 06:10:17;;;;;;;37.40;6.55;;;15.70;99.90;;;;;;7376741;19;20070;-72
2023/11/13 06:12:45;;;;;;;42.83;6.25;;;15.60;99.90;;;;;;7378251;19;20356;-72
2023/11/13 06:15:16;;;;;;;35.83;6.00;;;15.50;99.90;;;;;;7400072;19;20024;-72
2023/11/13 06:17:48;;;;;;;36.05;5.43;;;15.60;99.90;;;;;;7377675;19;20006;-72
2023/11/13 06:20:19;;;;;;;38.90;5.97;;;15.80;99.90;;;;;;7376961;19;20013;-73
2023/11/13 06:22:48;;;;;;;43.70;6.82;;;15.60;99.90;;;;;;7378496;19;20070;-72
2023/11/13 06:25:18;;;;;;;25.35;6.00;;;15.70;99.90;;;;;;7379286;19;20009;-72
2023/11/13 06:27:46;;;;;;;58.03;6.40;;;15.80;99.90;;;;;;7377835;19;20030;-73
2023/11/13 06:30:15;;;;;;;29.90;5.60;;;15.70;99.90;;;;;;7399997;19;20010;-72
2023/11/13 06:32:48;;;;;;;40.22;6.60;;;15.90;99.90;;;;;;7377235;19;20019;-72
2023/11/13 06:35:17;;;;;;;42.60;6.90;;;15.90;99.90;;;;;;7378369;19;20354;-72
2023/11/13 06:37:45;;;;;;;43.65;6.70;;;15.90;99.90;;;;;;7377933;19;20287;-72
2023/11/13 06:40:16;;;;;;;32.40;6.63;;;16.00;99.90;;;;;;7377703;19;20070;-72
2023/11/13 06:42:47;;;;;;;43.33;6.50;;;16.10;99.90;;;;;;7377677;19;20002;-71
2023/11/13 06:45:17;;;;;;;49.72;7.15;;;16.00;99.90;;;;;;7399948;19;20259;-72
2023/11/13 06:47:50;;;;;;;38.00;7.18;;;16.00;99.90;;;;;;7377208;19;20002;-72
2023/11/13 06:50:19;;;;;;;30.45;7.00;;;16.10;99.90;;;;;;7377564;19;20034;-72
2023/11/13 06:52:47;;;;;;;36.22;6.57;;;15.70;99.90;;;;;;7378043;19;20026;-73
2023/11/13 06:55:16;;;;;;;44.10;7.15;;;15.90;99.90;;;;;;7377930;19;20414;-73
2023/11/13 06:57:45;;;;;;;36.15;7.40;;;15.90;99.90;;;;;;7377215;19;20082;-73
2023/11/13 07:00:16;;;;;;;30.15;6.43;;;16.00;99.90;;;;;;7398054;19;20297;-73
2023/11/13 07:02:50;;;;;;;;;;;15.90;99.90;;;;;;7377322;19;20006;-73
2023/11/13 07:05:20;;;;;;;27.77;6.03;;;16.00;99.90;;;;;;7376678;19;19930;-73
2023/11/13 07:07:50;;;;;;;30.73;5.28;;;15.90;99.90;;;;;;7377046;19;20014;-73
2023/11/13 07:10:21;;;;;;;23.48;5.15;;;16.00;99.90;;;;;;7377547;19;20398;-73
2023/11/13 07:12:51;;;;;;;31.88;5.57;;;16.00;99.90;;;;;;7377537;19;20027;-73
2023/11/13 07:15:21;;;;;;;30.10;5.63;;;16.10;99.90;;;;;;7400182;19;20046;-73
2023/11/13 07:17:52;;;;;;;18.77;5.38;;;16.20;99.90;;;;;;7376611;19;19998;-73
2023/11/13 07:20:21;;;;;;;27.25;4.45;;;16.20;99.90;;;;;;7375426;19;20007;-73
2023/11/13 07:22:53;;;;;;;27.40;4.85;;;16.20;99.90;;;;;;7377623;19;20104;-73
2023/11/13 07:25:22;;;;;;;19.90;3.83;;;16.20;99.90;;;;;;7377384;19;20043;-73
2023/11/13 07:27:51;;;;;;;14.52;4.07;;;16.10;99.90;;;;;;7377458;19;20002;-73
2023/11/13 07:30:20;;;;;;;21.70;4.10;;;16.10;99.90;;;;;;7397965;19;20749;-73
2023/11/13 07:32:48;;;;;;;20.63;3.60;;;16.10;99.90;;;;;;7376473;19;20059;-73
2023/11/13 07:35:20;;;;;;;14.52;3.53;;;15.90;99.90;;;;;;7376874;19;20078;-73
2023/11/13 07:37:48;;;;;;;;;;;15.90;99.90;;;;;;7378094;19;20006;-74
2023/11/13 07:40:18;;;;;;;15.77;3.47;;;16.00;99.90;;;;;;7376612;19;19922;-73
2023/11/13 07:42:48;;;;;;;14.95;3.47;;;16.00;99.90;;;;;;7377524;19;20002;-78
2023/11/13 07:45:18;;;;;;;23.33;2.75;;;16.10;99.90;;;;;;7400577;19;20058;-78
2023/11/13 07:47:48;;;;;;;19.38;3.90;;;16.10;99.90;;;;;;7378871;19;20290;-78
2023/11/13 07:50:19;;;;;;;14.57;3.65;;;16.10;99.90;;;;;;7380217;19;20341;-78
2023/11/13 07:52:48;;;;;;;20.00;3.70;;;16.30;99.90;;;;;;7377886;19;20522;-75
2023/11/13 07:55:18;;;;;;;13.35;3.70;;;16.30;99.90;;;;;;7377897;19;20010;-78
2023/11/13 07:57:47;;;;;;;18.02;3.83;;;16.10;99.90;;;;;;7377197;19;20038;-78
2023/11/13 08:00:23;;;;;;;182.98;17.60;;;15.90;99.90;;;;;;7410847;19;20006;-77
2023/11/13 08:02:52;;;;;;;16.90;3.70;;;15.80;99.90;;;;;;7390382;19;20031;-78
2023/11/13 08:05:26;;;;;;;217.18;11.25;;;15.80;99.90;;;;;;7402288;19;20011;-78
2023/11/13 08:07:54;;;;;;;26.10;4.68;;;16.00;99.90;;;;;;7404553;19;20011;-77
2023/11/13 08:10:24;;;;;;;23.83;3.72;;;16.10;99.90;;;;;;7396239;19;20013;-78
2023/11/13 08:12:52;;;;;;;14.35;3.72;;;16.10;99.90;;;;;;7381744;19;20018;-78
2023/11/13 08:15:21;;;;;;;22.63;3.78;;;16.10;99.90;;;;;;7400742;19;20445;-78
2023/11/13 08:17:52;;;;;;;20.15;3.88;;;16.20;99.90;;;;;;7378126;19;20021;-79
2023/11/13 08:20:26;;;;;;;13.20;3.70;;;16.20;99.90;;;;;;7379241;19;20012;-75
2023/11/13 08:22:56;;;;;;;14.25;3.92;;;16.30;99.90;;;;;;7375402;19;20397;-74
2023/11/13 08:25:26;;;;;;;14.52;3.70;;;16.30;99.90;;;;;;7373629;19;20003;-74
2023/11/13 08:27:55;;;;;;;19.38;3.65;;;16.40;99.90;;;;;;7373939;19;20007;-74
2023/11/13 08:30:25;;;;;;;13.75;3.45;;;16.30;99.90;;;;;;7394957;19;20011;-74
2023/11/13 08:32:54;;;;;;;17.97;3.30;;;16.10;99.90;;;;;;7380136;19;20027;-74
2023/11/13 08:35:26;;;;;;;21.35;4.18;;;16.20;99.90;;;;;;7381703;19;20023;-74
2023/11/13 08:37:56;;;;;;;14.70;3.17;;;16.10;99.90;;;;;;7383385;19;20032;-77
2023/11/13 08:40:26;;;;;;;12.80;3.08;;;15.90;99.90;;;;;;7381829;19;20009;-77
2023/11/13 08:42:55;;;;;;;11.65;3.35;;;16.10;99.90;;;;;;7383575;19;20007;-75
2023/11/13 08:45:24;;;;;;;10.70;3.03;;;16.10;99.90;;;;;;7407068;19;20353;-77
2023/11/13 08:47:55;;;;;;;14.10;3.58;;;16.20;99.90;;;;;;7384258;19;20011;-78
2023/11/13 08:50:26;;;;;;;14.10;3.65;;;16.20;99.90;;;;;;7385052;19;20024;-78
2023/11/13 08:52:58;;;;;;;;;;;16.20;99.90;;;;;;7385109;19;20011;-78
2023/11/13 08:55:27;;;;;;;13.32;3.78;;;16.30;99.90;;;;;;7384524;19;20148;-78
2023/11/13 08:57:57;;;;;;;16.88;4.05;;;16.30;99.90;;;;;;7384412;19;20370;-78
2023/11/13 09:00:28;;;;;;;14.95;3.80;;;16.50;99.90;;;;;;7405009;19;20007;-78
2023/11/13 09:02:57;;;;;;;;;;;16.50;99.90;;;;;;7383976;19;20015;-77
2023/11/13 09:05:29;;;;;;;16.45;3.30;;;16.30;99.90;;;;;;7381774;19;19954;-75
2023/11/13 09:08:01;;;;;;;20.73;3.70;;;16.40;99.90;;;;;;7384409;19;20137;-77
2023/11/13 09:10:31;;;;;;;14.38;3.15;;;16.50;99.90;;;;;;7385294;19;20002;-75
2023/11/13 09:13:01;;;;;;;8.15;2.95;;;16.40;99.90;;;;;;7384833;19;20094;-76
2023/11/13 09:15:30;;;;;;;11.95;2.85;;;16.40;99.90;;;;;;7406308;19;20011;-76
2023/11/13 09:18:01;;;;;;;15.40;3.33;;;16.30;99.90;;;;;;7383732;19;20394;-77
2023/11/13 09:20:32;;;;;;;13.57;3.63;;;16.30;99.90;;;;;;7384595;19;19999;-77
2023/11/13 09:23:04;;;;;;;13.30;3.50;;;16.50;99.90;;;;;;7387706;19;20007;-78
2023/11/13 09:25:32;;;;;;;17.55;3.33;;;16.30;99.90;;;;;;7387943;19;20014;-79
2023/11/13 09:28:01;;;;;;;13.07;4.10;;;16.30;99.90;;;;;;7388625;19;20016;-78
2023/11/13 09:30:30;;;;;;;19.13;3.65;;;16.40;99.90;;;;;;7409646;19;20374;-78
2023/11/13 09:32:59;;;;;;;10.75;3.20;;;16.50;99.90;;;;;;7384991;19;20365;-76
2023/11/13 09:35:29;;;;;;;19.42;3.30;;;16.40;99.90;;;;;;7383205;19;20002;-74
2023/11/13 09:38:02;;;;;;;7.35;3.28;;;16.50;99.90;;;;;;7383887;19;20002;-80
2023/11/13 09:40:34;;;;;;;12.07;3.35;;;16.40;99.90;;;;;;7383987;19;20006;-77
2023/11/13 09:43:12;;;;;;;11.48;2.95;;;16.50;99.90;;;;;;7382794;19;20050;-78
2023/11/13 09:45:45;;;;;;;11.10;2.92;;;16.30;99.90;;;;;;7392877;19;20011;-76
2023/11/13 09:48:19;;;;;;;8.13;2.85;;;16.40;99.90;;;;;;7410034;19;20027;-78
2023/11/13 09:50:48;;;;;;;12.15;2.72;;;16.50;99.90;;;;;;7383586;19;20270;-74
2023/11/13 09:53:25;;;;;;;7.78;2.35;;;16.60;99.90;;;;;;7382498;19;20275;-73
2023/11/13 09:55:54;;;;;;;7.13;2.67;;;16.60;99.90;;;;;;7384135;19;20035;-72
2023/11/13 09:58:24;;;;;;;5.32;2.22;;;16.30;99.90;;;;;;7384817;19;20070;-78
2023/11/13 10:00:54;;;;;;;5.43;2.10;;;16.40;99.90;;;;;;7384871;19;20006;-78
2023/11/13 10:03:23;;;;;;;6.40;2.28;;;16.50;99.90;;;;;;7404211;19;20034;-78
2023/11/13 10:05:52;;;;;;;9.98;2.28;;;16.40;99.90;;;;;;7383987;19;20010;-77
2023/11/13 10:08:24;;;;;;;10.18;2.25;;;16.50;99.90;;;;;;7382332;19;20382;-77
2023/11/13 10:10:55;;;;;;;6.22;2.15;;;16.70;99.90;;;;;;7384460;19;20535;-79
2023/11/13 10:13:25;;;;;;;6.97;2.03;;;16.70;99.90;;;;;;7384297;19;20014;-77
2023/11/13 10:15:53;;;;;;;10.20;2.25;;;16.40;99.90;;;;;;7382809;19;20010;-77
2023/11/13 10:18:28;;;;;;;7.50;2.17;;;16.50;99.90;;;;;;7404607;19;20003;-78
2023/11/13 10:20:58;;;;;;;9.10;1.88;;;16.50;99.90;;;;;;7393290;19;20010;-77
2023/11/13 10:23:37;;;;;;;10.20;2.03;;;16.60;99.90;;;;;;7398150;19;20027;-77
2023/11/13 10:26:09;;;;;;;6.70;2.35;;;16.60;99.90;;;;;;7405130;19;20010;-78
2023/11/13 10:28:42;;;;;;;3.95;1.98;;;16.70;99.90;;;;;;7405603;19;20007;-79
2023/11/13 10:31:12;;;;;;;7.20;1.92;;;16.80;99.90;;;;;;7403648;19;20009;-77
2023/11/13 10:33:42;;;;;;;6.97;1.90;;;16.90;99.90;;;;;;7394253;19;20017;-78
2023/11/13 10:36:17;;;;;;;4.93;1.60;;;16.90;99.90;;;;;;7403577;19;20030;-76
2023/11/13 10:38:52;;;;;;;5.35;1.58;;;16.90;99.90;;;;;;7381190;19;20007;-77
2023/11/13 10:41:23;;;;;;;8.52;2.03;;;17.00;99.90;;;;;;7381100;19;20007;-76
2023/11/13 10:43:52;;;;;;;4.03;1.48;;;16.90;99.90;;;;;;7382222;19;20031;-78
2023/11/13 10:46:31;;;;;;;4.68;1.92;;;16.80;99.90;;;;;;7384471;19;20003;-77
2023/11/13 10:48:59;;;;;;;4.68;1.40;;;16.90;99.90;;;;;;7381661;19;20854;-77
2023/11/13 10:51:31;;;;;;;10.57;2.00;;;16.90;99.90;;;;;;7402847;19;20084;-77
2023/11/13 10:54:06;;;;;;;8.93;1.70;;;17.10;99.90;;;;;;7378928;19;20005;-76
2023/11/13 10:56:36;;;;;;;5.90;1.60;;;16.80;99.90;;;;;;7380465;19;20027;-77
2023/11/13 10:59:07;;;;;;;3.95;1.27;;;17.00;99.90;;;;;;7381311;19;20059;-77
2023/11/13 11:01:38;;;;;;;5.15;1.58;;;17.10;99.90;;;;;;7380499;19;20002;-77
2023/11/13 11:04:08;;;;;;;13.93;1.70;;;17.30;99.90;;;;;;7380873;19;20011;-77
2023/11/13 11:06:39;;;;;;;5.50;1.55;;;17.20;99.90;;;;;;7402638;19;20014;-73
2023/11/13 11:09:12;;;;;;;6.20;1.73;;;17.10;99.90;;;;;;7380307;19;20011;-77
2023/11/13 11:11:43;;;;;;;6.90;2.15;;;17.00;99.90;;;;;;7383041;19;20026;-78
2023/11/13 11:14:19;;;;;;;5.30;2.17;;;17.10;99.90;;;;;;7382620;19;20006;-80
2023/11/13 11:16:52;;;;;;;8.27;2.40;;;17.10;99.90;;;;;;7386579;19;20032;-82
2023/11/13 11:19:29;;;;;;;9.65;2.30;;;17.20;99.90;;;;;;7384256;19;20017;-78
2023/11/13 11:22:02;;;;;;;15.35;2.38;;;17.10;99.90;;;;;;7383245;19;20032;-79
2023/11/13 11:25:00;;;;;;;12.45;2.50;;;17.10;99.90;;;;;;7403348;19;20011;-75
2023/11/13 11:27:40;;;;;;;16.13;2.88;;;16.80;99.90;;;;;;7379786;19;20416;-77
2023/11/13 11:30:35;;;;;;;12.20;2.90;;;17.10;99.90;;;;;;7380032;19;20377;-77
2023/11/13 11:33:09;;;;;;;16.40;3.05;;;17.10;99.90;;;;;;7379838;19;20009;-75
2023/11/13 11:35:42;;;;;;;18.33;3.95;;;17.10;99.90;;;;;;7379912;19;20018;-78
2023/11/13 11:38:22;;;;;;;19.10;3.95;;;17.10;99.90;;;;;;7381951;19;20010;-78
2023/11/13 11:40:53;;;;;;;19.33;3.85;;;17.10;99.90;;;;;;7383552;19;20040;-77
2023/11/13 11:43:24;;;;;;;13.45;3.63;;;17.20;99.90;;;;;;7379293;19;20074;-76
2023/11/13 11:45:54;;;;;;;21.23;3.50;;;17.00;99.90;;;;;;7379467;19;20029;-78
2023/11/13 11:48:24;;;;;;;27.27;4.13;;;16.90;99.90;;;;;;7399871;19;20006;-76
2023/11/13 11:50:58;;;;;;;20.55;4.00;;;17.10;99.90;;;;;;7379269;19;20099;-77
2023/11/13 11:53:27;;;;;;;16.17;4.10;;;17.10;99.90;;;;;;7379401;19;20007;-78
2023/11/13 11:55:58;;;;;;;18.75;3.88;;;17.20;99.90;;;;;;7381599;19;20008;-74
2023/11/13 11:58:27;;;;;;;24.85;3.78;;;17.00;99.90;;;;;;7379526;19;20279;-76
2023/11/13 12:00:57;;;;;;;21.27;3.80;;;16.90;99.90;;;;;;7380484;19;20019;-79
2023/11/13 12:03:26;;;;;;;23.50;3.75;;;17.10;99.90;;;;;;7402905;19;20021;-78
2023/11/13 12:05:55;;;;;;;16.73;3.08;;;17.00;99.90;;;;;;7380155;19;20006;-78
2023/11/13 12:08:29;;;;;;;15.15;3.50;;;16.90;99.90;;;;;;7381569;19;20057;-79
2023/11/13 12:11:09;;;;;;;15.35;3.42;;;16.90;99.90;;;;;;7379795;19;20002;-78
2023/11/13 12:13:39;;;;;;;15.53;3.20;;;17.00;99.90;;;;;;7380642;19;20011;-77
2023/11/13 12:16:12;;;;;;;12.25;3.00;;;17.10;99.90;;;;;;7383486;19;20291;-78
2023/11/13 12:18:41;;;;;;;11.35;3.25;;;17.20;99.90;;;;;;7389508;19;20015;-79
2023/11/13 12:21:10;;;;;;;9.25;3.10;;;17.30;99.90;;;;;;7407200;19;20354;-80
2023/11/13 12:23:39;;;;;;;17.10;3.47;;;17.30;99.90;;;;;;7386718;19;20019;-81
2023/11/13 12:29:15;;;;;;;15.43;3.40;;;17.20;99.90;;;;;;7385304;19;20428;-82
2023/11/13 12:31:44;;;;;;;16.58;3.42;;;17.20;99.90;;;;;;7382715;19;20003;-79
2023/11/13 12:34:16;;;;;;;18.42;3.03;;;17.40;99.90;;;;;;7384137;19;20055;-79
2023/11/13 12:36:49;;;;;;;13.73;2.90;;;17.50;99.90;;;;;;7385361;19;20014;-79
2023/11/13 12:39:19;;;;;;;13.93;2.80;;;17.20;99.90;;;;;;7402041;19;20021;-78
2023/11/13 12:41:52;;;;;;;7.53;2.50;;;17.20;99.90;;;;;;7381179;19;20381;-78
2023/11/13 12:44:22;;;;;;;10.35;2.30;;;17.30;99.90;;;;;;7382685;19;20063;-78
2023/11/13 12:46:53;;;;;;;7.82;2.05;;;17.40;99.90;;;;;;7391241;19;20050;-77
2023/11/13 12:49:24;;;;;;;5.60;2.00;;;17.40;99.90;;;;;;7390024;19;20006;-78
2023/11/13 12:51:53;;;;;;;;;;;17.50;99.90;;;;;;7387379;19;20007;-78
2023/11/13 12:54:21;;;;;;;6.53;1.70;;;17.30;99.90;;;;;;7408510;19;19918;-77
2023/11/13 12:56:56;;;;;;;6.07;1.50;;;17.20;99.90;;;;;;7378703;19;20366;-80
2023/11/13 12:59:26;;;;;;;3.78;1.50;;;17.20;99.90;;;;;;7378658;19;20023;-78
2023/11/13 13:01:55;;;;;;;4.68;1.63;;;17.10;99.90;;;;;;7378394;19;20010;-78
2023/11/13 13:04:28;;;;;;;2.28;1.00;;;17.10;99.90;;;;;;7382238;19;20011;-80